| time (UTC) | temp F | wind direction | speed MPH | gust MPH | rain 1hr in | rain 24hr in | rain mn in | humidity % | barometer mb |
| 20260508054637 | 53 | 0 | 0.0 | 0.0 | 0.00 | 1.12 | 0.00 | 96 | 1013.4 |
| 20260508053056 | 53 | 0 | 0.0 | 0.0 | 0.00 | 1.12 | 0.00 | 96 | 1013.4 |
| 20260508051554 | 54 | 0 | 0.0 | 0.0 | 0.00 | 1.12 | 0.00 | 96 | 1013.2 |
| 20260508050055 | 54 | 0 | 0.0 | 0.0 | 0.00 | 1.12 | 0.00 | 96 | 1013.3 |
| 20260508044553 | 54 | 0 | 0.0 | 0.0 | 0.00 | 1.12 | 0.00 | 96 | 1013.2 |
| 20260508043100 | 54 | 0 | 0.0 | 0.0 | 0.00 | 1.12 | 0.00 | 96 | 1013.2 |
| 20260508041554 | 54 | 0 | 0.0 | 0.0 | 0.00 | 1.12 | 0.00 | 96 | 1013.2 |
| 20260508040058 | 54 | 0 | 0.0 | 0.0 | 0.00 | 1.12 | 0.00 | 96 | 1013.1 |
| 20260508034554 | 54 | 0 | 0.0 | 2.0 | 0.00 | 1.12 | 1.12 | 96 | 1013.2 |
| 20260508033055 | 54 | 0 | 0.0 | 0.0 | 0.00 | 1.12 | 1.12 | 96 | 1012.8 |
| 20260508031559 | 54 | 0 | 0.0 | 0.0 | 0.00 | 1.12 | 1.12 | 96 | 1012.5 |
| 20260508030104 | 54 | 0 | 0.0 | 2.0 | 0.00 | 1.12 | 1.12 | 96 | 1012.6 |
| 20260508024604 | 54 | 0 | 0.0 | 0.0 | 0.00 | 1.12 | 1.12 | 96 | 1012.2 |
| 20260508023055 | 54 | 0 | 0.0 | 0.0 | 0.00 | 1.12 | 1.12 | 96 | 1012.2 |
| 20260508021556 | 54 | 0 | 0.0 | 0.0 | 0.00 | 1.12 | 1.12 | 95 | 1012.2 |
| 20260508020105 | 54 | 0 | 0.0 | 2.0 | 0.00 | 1.12 | 1.12 | 95 | 1011.9 |
| 20260508014557 | 54 | 0 | 0.0 | 0.0 | 0.00 | 1.12 | 1.12 | 95 | 1011.9 |
| 20260508013056 | 54 | 0 | 0.0 | 3.0 | 0.01 | 1.12 | 1.12 | 95 | 1012.0 |
| 20260508011559 | 54 | 24 | 0.0 | 3.0 | 0.01 | 1.12 | 1.12 | 95 | 1011.3 |
| 20260508010057 | 54 | 24 | 0.0 | 3.0 | 0.01 | 1.12 | 1.12 | 95 | 1011.0 |
| 20260508004556 | 54 | 24 | 1.0 | 3.0 | 0.01 | 1.12 | 1.12 | 94 | 1011.1 |
| 20260508003056 | 54 | 22 | 1.0 | 5.0 | 0.00 | 1.11 | 1.11 | 93 | 1011.0 |
| 20260508001551 | 54 | 342 | 1.0 | 4.0 | 0.00 | 1.11 | 1.11 | 93 | 1011.2 |
| 20260508000057 | 54 | 109 | 1.0 | 7.0 | 0.00 | 1.11 | 1.11 | 93 | 1010.0 |
| 20260507234559 | 55 | 346 | 1.0 | 4.0 | 0.00 | 1.11 | 1.11 | 93 | 1010.0 |
| 20260507233058 | 55 | 46 | 1.0 | 5.0 | 0.00 | 1.11 | 1.11 | 92 | 1010.0 |
| 20260507231555 | 54 | 5 | 2.0 | 7.0 | 0.00 | 1.11 | 1.11 | 92 | 1010.0 |
| 20260507230055 | 54 | 75 | 2.0 | 9.0 | 0.00 | 1.11 | 1.11 | 93 | 1009.9 |
| 20260507224556 | 54 | 63 | 3.0 | 9.0 | 0.00 | 1.11 | 1.11 | 93 | 1009.7 |
| 20260507223055 | 54 | 55 | 2.0 | 8.0 | 0.00 | 1.11 | 1.11 | 94 | 1009.5 |
| 20260507221556 | 54 | 62 | 2.0 | 8.0 | 0.00 | 1.11 | 1.11 | 95 | 1009.2 |
| 20260507220055 | 54 | 78 | 3.0 | 9.0 | 0.00 | 1.11 | 1.11 | 95 | 1009.5 |
| 20260507214555 | 54 | 355 | 3.0 | 13.0 | 0.00 | 1.11 | 1.11 | 95 | 1009.7 |
| 20260507213054 | 55 | 338 | 3.0 | 8.0 | 0.00 | 1.11 | 1.11 | 96 | 1009.2 |
| 20260507211556 | 56 | 54 | 4.0 | 8.0 | 0.00 | 1.11 | 1.11 | 96 | 1008.9 |
| 20260507204552 | 57 | 74 | 3.0 | 9.0 | 0.00 | 1.11 | 1.11 | 96 | 1008.6 |
| 20260507203058 | 58 | 73 | 2.0 | 9.0 | 0.01 | 1.11 | 1.11 | 96 | 1008.1 |
| 20260507201553 | 58 | 333 | 3.0 | 9.0 | 0.07 | 1.11 | 1.11 | 96 | 1008.4 |
| 20260507200052 | 58 | 337 | 2.0 | 12.0 | 0.08 | 1.11 | 1.11 | 95 | 1008.5 |
| 20260507194554 | 58 | 343 | 2.0 | 14.0 | 0.08 | 1.11 | 1.11 | 95 | 1008.6 |
| 20260507193053 | 59 | 58 | 3.0 | 19.0 | 0.07 | 1.10 | 1.10 | 94 | 1008.2 |
| 20260507191553 | 61 | 51 | 3.0 | 13.0 | 0.00 | 1.03 | 1.03 | 92 | 1007.9 |
| 20260507180100 | 70 | 229 | 1.0 | 4.0 | 0.01 | 1.03 | 1.03 | 97 | 1007.7 |
| 20260507174607 | 69 | 261 | 3.0 | 7.0 | 0.01 | 1.03 | 1.03 | 97 | 1008.1 |
| 20260507173053 | 69 | 254 | 1.0 | 8.0 | 0.01 | 1.03 | 1.03 | 98 | 1007.8 |
| 20260507171610 | 69 | 254 | 0.0 | 5.0 | 0.01 | 1.03 | 1.03 | 98 | 1007.6 |
| 20260507170057 | 68 | 232 | 1.0 | 4.0 | 0.00 | 1.02 | 1.02 | 98 | 1008.0 |
| 20260507164554 | 68 | 0 | 2.0 | 4.0 | 0.00 | 1.02 | 1.02 | 98 | 1008.4 |
| 20260507163053 | 68 | 281 | 1.0 | 5.0 | 0.01 | 1.02 | 1.02 | 98 | 1008.8 |
| 20260507161602 | 67 | 259 | 2.0 | 4.0 | 0.02 | 1.02 | 1.02 | 97 | 1009.2 |
| 20260507160059 | 67 | 233 | 2.0 | 4.0 | 0.03 | 1.02 | 1.02 | 97 | 1009.5 |
| 20260507154556 | 67 | 233 | 1.0 | 3.0 | 0.06 | 1.02 | 1.02 | 98 | 1008.8 |
| 20260507153107 | 67 | 236 | 1.0 | 3.0 | 0.10 | 1.01 | 1.01 | 97 | 1008.7 |
| 20260507151558 | 67 | 240 | 2.0 | 5.0 | 0.20 | 1.00 | 1.00 | 97 | 1008.7 |
| 20260507144556 | 66 | 257 | 3.0 | 10.0 | 0.23 | 0.96 | 0.96 | 97 | 1009.7 |
| 20260507143058 | 67 | 237 | 6.0 | 12.0 | 0.18 | 0.91 | 0.91 | 97 | 1009.6 |
| 20260507141552 | 67 | 244 | 3.0 | 9.0 | 0.07 | 0.80 | 0.80 | 97 | 1009.6 |
| 20260507140105 | 67 | 258 | 3.0 | 7.0 | 0.01 | 0.74 | 0.74 | 97 | 1009.7 |
| 20260507134555 | 67 | 242 | 2.0 | 5.0 | 0.00 | 0.73 | 0.73 | 98 | 1009.6 |
| 20260507133101 | 67 | 236 | 2.0 | 5.0 | 0.00 | 0.73 | 0.73 | 98 | 1009.6 |
| 20260507131556 | 67 | 232 | 2.0 | 4.0 | 0.00 | 0.73 | 0.73 | 98 | 1009.5 |
| 20260507130108 | 67 | 236 | 1.0 | 4.0 | 0.00 | 0.73 | 0.73 | 98 | 1009.4 |
| 20260507124634 | 67 | 236 | 2.0 | 7.0 | 0.00 | 0.73 | 0.73 | 98 | 1009.4 |
| 20260507123055 | 67 | 236 | 1.0 | 9.0 | 0.01 | 0.73 | 0.73 | 98 | 1009.7 |
| 20260507121554 | 67 | 217 | 2.0 | 5.0 | 0.01 | 0.73 | 0.73 | 98 | 1009.9 |
| 20260507120057 | 67 | 225 | 2.0 | 6.0 | 0.01 | 0.73 | 0.73 | 98 | 1010.0 |
| 20260507114609 | 66 | 225 | 2.0 | 5.0 | 0.01 | 0.73 | 0.73 | 98 | 1010.2 |
| 20260507113056 | 66 | 259 | 0.0 | 0.0 | 0.02 | 0.72 | 0.72 | 98 | 1010.4 |
| 20260507111555 | 66 | 0 | 0.0 | 0.0 | 0.03 | 0.72 | 0.72 | 97 | 1010.3 |
| 20260507110054 | 66 | 0 | 0.0 | 1.0 | 0.05 | 0.72 | 0.72 | 97 | 1010.4 |
| 20260507104558 | 66 | 0 | 0.0 | 3.0 | 0.06 | 0.72 | 0.72 | 98 | 1010.0 |
| 20260507103055 | 66 | 267 | 1.0 | 3.0 | 0.06 | 0.70 | 0.70 | 98 | 1010.2 |
| 20260507101559 | 66 | 267 | 1.0 | 3.0 | 0.06 | 0.69 | 0.69 | 97 | 1010.2 |
| 20260507100058 | 66 | 252 | 1.0 | 4.0 | 0.05 | 0.67 | 0.67 | 97 | 1009.9 |
| 20260507094553 | 66 | 249 | 1.0 | 4.0 | 0.04 | 0.66 | 0.66 | 97 | 1009.9 |
| 20260507093102 | 66 | 240 | 2.0 | 5.0 | 0.09 | 0.64 | 0.64 | 97 | 1010.0 |
| 20260507091559 | 66 | 257 | 2.0 | 8.0 | 0.15 | 0.63 | 0.63 | 97 | 1010.0 |
| 20260507090106 | 66 | 223 | 3.0 | 8.0 | 0.16 | 0.62 | 0.62 | 97 | 1009.7 |
| 20260507084555 | 66 | 244 | 0.0 | 7.0 | 0.18 | 0.62 | 0.62 | 97 | 1010.1 |
| 20260507083054 | 66 | 236 | 1.0 | 4.0 | 0.13 | 0.55 | 0.55 | 97 | 1010.5 |
| 20260507081555 | 66 | 223 | 0.0 | 6.0 | 0.07 | 0.48 | 0.48 | 97 | 1011.0 |
| 20260507080100 | 66 | 202 | 0.0 | 3.0 | 0.06 | 0.46 | 0.46 | 97 | 1010.6 |
| 20260507074610 | 66 | 0 | 0.0 | 3.0 | 0.04 | 0.44 | 0.44 | 97 | 1010.7 |
| 20260507073056 | 66 | 0 | 0.0 | 0.0 | 0.02 | 0.42 | 0.42 | 97 | 1010.8 |
| 20260507071557 | 66 | 0 | 0.0 | 0.0 | 0.01 | 0.41 | 0.41 | 97 | 1011.0 |
| 20260507070116 | 66 | 0 | 0.0 | 0.0 | 0.00 | 0.40 | 0.40 | 96 | 1011.5 |
| 20260507064615 | 66 | 0 | 0.0 | 0.0 | 0.00 | 0.40 | 0.40 | 96 | 1011.4 |
| 20260507063058 | 66 | 0 | 0.0 | 0.0 | 0.00 | 0.40 | 0.40 | 96 | 1011.5 |
| 20260507061607 | 66 | 0 | 0.0 | 2.0 | 0.01 | 0.40 | 0.40 | 96 | 1011.6 |